sensor_id;sensor_type;location;lat;lon;timestamp;P1;durP1;ratioP1;P2;durP2;ratioP2
10446;SDS011;5271;44.422;26.092;2023-04-09T00:02:00;1.00;;;1.00;;
10446;SDS011;5271;44.422;26.092;2023-04-09T00:04:27;1.00;;;1.00;;
10446;SDS011;5271;44.422;26.092;2023-04-09T00:06:55;1.07;;;1.07;;
10446;SDS011;5271;44.422;26.092;2023-04-09T00:09:22;1.00;;;1.00;;
10446;SDS011;5271;44.422;26.092;2023-04-09T00:11:49;1.10;;;1.10;;
10446;SDS011;5271;44.422;26.092;2023-04-09T00:14:16;0.97;;;0.97;;
10446;SDS011;5271;44.422;26.092;2023-04-09T00:16:42;1.10;;;1.10;;
10446;SDS011;5271;44.422;26.092;2023-04-09T00:19:09;1.10;;;1.10;;
10446;SDS011;5271;44.422;26.092;2023-04-09T00:21:36;1.10;;;1.10;;
10446;SDS011;5271;44.422;26.092;2023-04-09T00:24:05;1.10;;;1.10;;
10446;SDS011;5271;44.422;26.092;2023-04-09T00:26:32;1.10;;;1.10;;
10446;SDS011;5271;44.422;26.092;2023-04-09T00:28:58;1.10;;;1.10;;
10446;SDS011;5271;44.422;26.092;2023-04-09T00:31:25;1.07;;;1.07;;
10446;SDS011;5271;44.422;26.092;2023-04-09T00:33:52;1.00;;;1.00;;
10446;SDS011;5271;44.422;26.092;2023-04-09T00:36:19;1.10;;;1.10;;
10446;SDS011;5271;44.422;26.092;2023-04-09T00:38:46;1.10;;;1.10;;
10446;SDS011;5271;44.422;26.092;2023-04-09T00:41:14;1.10;;;1.10;;
10446;SDS011;5271;44.422;26.092;2023-04-09T00:43:42;1.10;;;1.10;;
10446;SDS011;5271;44.422;26.092;2023-04-09T00:46:09;1.10;;;1.10;;
10446;SDS011;5271;44.422;26.092;2023-04-09T00:48:36;1.00;;;1.00;;
10446;SDS011;5271;44.422;26.092;2023-04-09T00:51:03;1.10;;;1.10;;
10446;SDS011;5271;44.422;26.092;2023-04-09T00:53:29;1.20;;;1.20;;
10446;SDS011;5271;44.422;26.092;2023-04-09T00:55:56;1.10;;;1.10;;
10446;SDS011;5271;44.422;26.092;2023-04-09T00:58:25;1.10;;;1.10;;
10446;SDS011;5271;44.422;26.092;2023-04-09T01:00:52;1.10;;;1.10;;
10446;SDS011;5271;44.422;26.092;2023-04-09T01:03:18;1.00;;;1.00;;
10446;SDS011;5271;44.422;26.092;2023-04-09T01:05:47;1.00;;;1.00;;
10446;SDS011;5271;44.422;26.092;2023-04-09T01:08:22;1.10;;;1.10;;
10446;SDS011;5271;44.422;26.092;2023-04-09T01:10:57;1.10;;;1.10;;
10446;SDS011;5271;44.422;26.092;2023-04-09T01:13:37;1.10;;;1.10;;
10446;SDS011;5271;44.422;26.092;2023-04-09T01:16:08;1.10;;;1.10;;
10446;SDS011;5271;44.422;26.092;2023-04-09T01:18:38;1.10;;;1.10;;
10446;SDS011;5271;44.422;26.092;2023-04-09T01:21:10;1.10;;;1.10;;
10446;SDS011;5271;44.422;26.092;2023-04-09T01:23:43;1.10;;;1.10;;
10446;SDS011;5271;44.422;26.092;2023-04-09T01:26:16;1.10;;;1.10;;
10446;SDS011;5271;44.422;26.092;2023-04-09T01:28:52;1.00;;;1.00;;
10446;SDS011;5271;44.422;26.092;2023-04-09T01:31:20;1.00;;;1.00;;
10446;SDS011;5271;44.422;26.092;2023-04-09T01:33:53;1.10;;;1.10;;
10446;SDS011;5271;44.422;26.092;2023-04-09T01:36:20;1.10;;;1.10;;
10446;SDS011;5271;44.422;26.092;2023-04-09T01:38:49;1.10;;;1.10;;
10446;SDS011;5271;44.422;26.092;2023-04-09T01:41:17;1.10;;;1.10;;
10446;SDS011;5271;44.422;26.092;2023-04-09T01:43:47;1.10;;;1.10;;
10446;SDS011;5271;44.422;26.092;2023-04-09T01:46:17;1.10;;;1.10;;
10446;SDS011;5271;44.422;26.092;2023-04-09T01:48:44;1.17;;;1.17;;
10446;SDS011;5271;44.422;26.092;2023-04-09T01:51:12;1.10;;;1.10;;
10446;SDS011;5271;44.422;26.092;2023-04-09T01:53:39;1.10;;;1.10;;
10446;SDS011;5271;44.422;26.092;2023-04-09T01:56:06;1.10;;;1.10;;
10446;SDS011;5271;44.422;26.092;2023-04-09T01:58:33;1.10;;;1.10;;
10446;SDS011;5271;44.422;26.092;2023-04-09T02:01:02;1.10;;;1.10;;
10446;SDS011;5271;44.422;26.092;2023-04-09T02:03:34;1.10;;;1.10;;
10446;SDS011;5271;44.422;26.092;2023-04-09T02:06:06;1.20;;;1.20;;
10446;SDS011;5271;44.422;26.092;2023-04-09T02:08:38;1.00;;;1.00;;
10446;SDS011;5271;44.422;26.092;2023-04-09T02:11:09;1.10;;;1.10;;
10446;SDS011;5271;44.422;26.092;2023-04-09T02:13:36;1.00;;;1.00;;
10446;SDS011;5271;44.422;26.092;2023-04-09T02:16:05;1.10;;;1.10;;
10446;SDS011;5271;44.422;26.092;2023-04-09T02:18:35;1.10;;;1.10;;
10446;SDS011;5271;44.422;26.092;2023-04-09T02:21:02;1.10;;;1.10;;
10446;SDS011;5271;44.422;26.092;2023-04-09T02:23:30;1.10;;;1.10;;
10446;SDS011;5271;44.422;26.092;2023-04-09T02:25:57;1.07;;;1.07;;
10446;SDS011;5271;44.422;26.092;2023-04-09T02:28:24;1.10;;;1.10;;
10446;SDS011;5271;44.422;26.092;2023-04-09T02:30:51;1.10;;;1.10;;
10446;SDS011;5271;44.422;26.092;2023-04-09T02:33:18;1.10;;;1.10;;
10446;SDS011;5271;44.422;26.092;2023-04-09T02:35:46;1.10;;;1.10;;
10446;SDS011;5271;44.422;26.092;2023-04-09T02:38:13;1.10;;;1.10;;
10446;SDS011;5271;44.422;26.092;2023-04-09T02:40:40;1.10;;;1.10;;
10446;SDS011;5271;44.422;26.092;2023-04-09T02:43:07;1.07;;;1.07;;
10446;SDS011;5271;44.422;26.092;2023-04-09T02:45:34;1.10;;;1.10;;
10446;SDS011;5271;44.422;26.092;2023-04-09T02:48:01;1.10;;;1.10;;
10446;SDS011;5271;44.422;26.092;2023-04-09T02:50:28;1.00;;;1.00;;
10446;SDS011;5271;44.422;26.092;2023-04-09T02:52:56;1.07;;;1.07;;
10446;SDS011;5271;44.422;26.092;2023-04-09T02:55:23;1.10;;;1.10;;
10446;SDS011;5271;44.422;26.092;2023-04-09T02:57:50;1.10;;;1.10;;
10446;SDS011;5271;44.422;26.092;2023-04-09T03:00:17;1.10;;;1.10;;
10446;SDS011;5271;44.422;26.092;2023-04-09T03:02:43;1.10;;;1.10;;
10446;SDS011;5271;44.422;26.092;2023-04-09T03:05:10;1.10;;;1.10;;
10446;SDS011;5271;44.422;26.092;2023-04-09T03:07:37;1.00;;;1.00;;
10446;SDS011;5271;44.422;26.092;2023-04-09T03:10:05;1.10;;;1.10;;
10446;SDS011;5271;44.422;26.092;2023-04-09T03:12:33;1.00;;;1.00;;
10446;SDS011;5271;44.422;26.092;2023-04-09T03:15:00;1.10;;;1.10;;
10446;SDS011;5271;44.422;26.092;2023-04-09T03:17:26;1.10;;;1.10;;
10446;SDS011;5271;44.422;26.092;2023-04-09T03:19:55;1.10;;;1.10;;
10446;SDS011;5271;44.422;26.092;2023-04-09T03:22:23;1.03;;;1.03;;
10446;SDS011;5271;44.422;26.092;2023-04-09T03:24:49;1.00;;;1.00;;
10446;SDS011;5271;44.422;26.092;2023-04-09T03:27:18;1.10;;;1.10;;
10446;SDS011;5271;44.422;26.092;2023-04-09T03:29:44;1.10;;;1.10;;
10446;SDS011;5271;44.422;26.092;2023-04-09T03:32:11;1.13;;;1.13;;
10446;SDS011;5271;44.422;26.092;2023-04-09T03:34:38;1.10;;;1.10;;
10446;SDS011;5271;44.422;26.092;2023-04-09T03:37:05;1.10;;;1.10;;
10446;SDS011;5271;44.422;26.092;2023-04-09T03:39:32;1.10;;;1.10;;
10446;SDS011;5271;44.422;26.092;2023-04-09T03:41:59;1.10;;;1.10;;
10446;SDS011;5271;44.422;26.092;2023-04-09T03:44:27;1.10;;;1.10;;
10446;SDS011;5271;44.422;26.092;2023-04-09T03:46:54;1.10;;;1.10;;
10446;SDS011;5271;44.422;26.092;2023-04-09T03:49:20;1.10;;;1.10;;
10446;SDS011;5271;44.422;26.092;2023-04-09T03:51:47;1.10;;;1.10;;
10446;SDS011;5271;44.422;26.092;2023-04-09T03:54:14;1.10;;;1.10;;
10446;SDS011;5271;44.422;26.092;2023-04-09T03:56:41;1.10;;;1.10;;
10446;SDS011;5271;44.422;26.092;2023-04-09T03:59:08;1.10;;;1.10;;
10446;SDS011;5271;44.422;26.092;2023-04-09T04:01:36;1.10;;;1.10;;
10446;SDS011;5271;44.422;26.092;2023-04-09T04:04:03;1.10;;;1.10;;
10446;SDS011;5271;44.422;26.092;2023-04-09T04:06:31;1.13;;;1.13;;
10446;SDS011;5271;44.422;26.092;2023-04-09T04:08:59;1.20;;;1.20;;
10446;SDS011;5271;44.422;26.092;2023-04-09T04:11:26;1.20;;;1.20;;
10446;SDS011;5271;44.422;26.092;2023-04-09T04:13:53;1.10;;;1.10;;
10446;SDS011;5271;44.422;26.092;2023-04-09T04:16:20;1.10;;;1.10;;
10446;SDS011;5271;44.422;26.092;2023-04-09T04:18:49;1.00;;;1.00;;
10446;SDS011;5271;44.422;26.092;2023-04-09T04:21:15;1.20;;;1.20;;
10446;SDS011;5271;44.422;26.092;2023-04-09T04:23:42;1.20;;;1.20;;
10446;SDS011;5271;44.422;26.092;2023-04-09T04:26:09;1.10;;;1.10;;
10446;SDS011;5271;44.422;26.092;2023-04-09T04:28:36;1.17;;;1.17;;
10446;SDS011;5271;44.422;26.092;2023-04-09T04:31:06;1.20;;;1.20;;
10446;SDS011;5271;44.422;26.092;2023-04-09T04:33:34;1.10;;;1.10;;
10446;SDS011;5271;44.422;26.092;2023-04-09T04:36:06;1.13;;;1.13;;
10446;SDS011;5271;44.422;26.092;2023-04-09T04:38:34;1.10;;;1.10;;
10446;SDS011;5271;44.422;26.092;2023-04-09T04:41:01;1.10;;;1.10;;
10446;SDS011;5271;44.422;26.092;2023-04-09T04:43:28;1.10;;;1.10;;
10446;SDS011;5271;44.422;26.092;2023-04-09T04:45:56;1.20;;;1.20;;
10446;SDS011;5271;44.422;26.092;2023-04-09T04:48:23;1.10;;;1.10;;
10446;SDS011;5271;44.422;26.092;2023-04-09T04:50:53;1.20;;;1.20;;
10446;SDS011;5271;44.422;26.092;2023-04-09T04:53:22;1.20;;;1.20;;
10446;SDS011;5271;44.422;26.092;2023-04-09T04:55:49;1.20;;;1.20;;
10446;SDS011;5271;44.422;26.092;2023-04-09T04:58:16;1.20;;;1.20;;
10446;SDS011;5271;44.422;26.092;2023-04-09T05:00:43;1.20;;;1.20;;
10446;SDS011;5271;44.422;26.092;2023-04-09T05:03:10;1.20;;;1.20;;
10446;SDS011;5271;44.422;26.092;2023-04-09T05:05:37;1.20;;;1.20;;
10446;SDS011;5271;44.422;26.092;2023-04-09T05:08:04;1.20;;;1.20;;
10446;SDS011;5271;44.422;26.092;2023-04-09T05:10:33;1.20;;;1.20;;
10446;SDS011;5271;44.422;26.092;2023-04-09T05:13:00;1.20;;;1.20;;
10446;SDS011;5271;44.422;26.092;2023-04-09T05:15:26;1.10;;;1.10;;
10446;SDS011;5271;44.422;26.092;2023-04-09T05:17:53;1.10;;;1.10;;
10446;SDS011;5271;44.422;26.092;2023-04-09T05:20:20;1.20;;;1.20;;
10446;SDS011;5271;44.422;26.092;2023-04-09T05:22:47;1.20;;;1.20;;
10446;SDS011;5271;44.422;26.092;2023-04-09T05:25:14;1.20;;;1.20;;
10446;SDS011;5271;44.422;26.092;2023-04-09T05:27:42;1.20;;;1.20;;
10446;SDS011;5271;44.422;26.092;2023-04-09T05:30:10;1.20;;;1.20;;
10446;SDS011;5271;44.422;26.092;2023-04-09T05:32:37;1.20;;;1.20;;
10446;SDS011;5271;44.422;26.092;2023-04-09T05:35:04;1.20;;;1.20;;
10446;SDS011;5271;44.422;26.092;2023-04-09T05:37:31;1.10;;;1.10;;
10446;SDS011;5271;44.422;26.092;2023-04-09T05:39:58;1.20;;;1.20;;
10446;SDS011;5271;44.422;26.092;2023-04-09T05:42:25;1.10;;;1.10;;
10446;SDS011;5271;44.422;26.092;2023-04-09T05:44:53;1.20;;;1.20;;
10446;SDS011;5271;44.422;26.092;2023-04-09T05:47:20;1.10;;;1.10;;
10446;SDS011;5271;44.422;26.092;2023-04-09T05:49:47;1.13;;;1.13;;
10446;SDS011;5271;44.422;26.092;2023-04-09T05:52:14;1.20;;;1.20;;
10446;SDS011;5271;44.422;26.092;2023-04-09T05:54:41;1.20;;;1.20;;
10446;SDS011;5271;44.422;26.092;2023-04-09T05:57:08;1.10;;;1.10;;
10446;SDS011;5271;44.422;26.092;2023-04-09T05:59:34;1.20;;;1.20;;
10446;SDS011;5271;44.422;26.092;2023-04-09T06:02:03;1.10;;;1.10;;
10446;SDS011;5271;44.422;26.092;2023-04-09T06:04:30;1.20;;;1.20;;
10446;SDS011;5271;44.422;26.092;2023-04-09T06:06:56;1.20;;;1.20;;
10446;SDS011;5271;44.422;26.092;2023-04-09T06:09:24;1.10;;;1.10;;
10446;SDS011;5271;44.422;26.092;2023-04-09T06:11:51;1.10;;;1.10;;
10446;SDS011;5271;44.422;26.092;2023-04-09T06:14:18;1.10;;;1.10;;
10446;SDS011;5271;44.422;26.092;2023-04-09T06:16:45;1.10;;;1.10;;
10446;SDS011;5271;44.422;26.092;2023-04-09T06:19:15;1.20;;;1.20;;
10446;SDS011;5271;44.422;26.092;2023-04-09T06:21:42;1.10;;;1.10;;
10446;SDS011;5271;44.422;26.092;2023-04-09T06:24:09;1.20;;;1.20;;
10446;SDS011;5271;44.422;26.092;2023-04-09T06:26:36;1.13;;;1.13;;
10446;SDS011;5271;44.422;26.092;2023-04-09T06:29:03;1.20;;;1.20;;
10446;SDS011;5271;44.422;26.092;2023-04-09T06:31:29;1.10;;;1.10;;
10446;SDS011;5271;44.422;26.092;2023-04-09T06:33:57;1.10;;;1.10;;
10446;SDS011;5271;44.422;26.092;2023-04-09T06:36:25;1.10;;;1.10;;
10446;SDS011;5271;44.422;26.092;2023-04-09T06:38:52;1.10;;;1.10;;
10446;SDS011;5271;44.422;26.092;2023-04-09T06:41:20;1.10;;;1.10;;
10446;SDS011;5271;44.422;26.092;2023-04-09T06:43:47;1.20;;;1.20;;
10446;SDS011;5271;44.422;26.092;2023-04-09T06:46:13;1.20;;;1.20;;
10446;SDS011;5271;44.422;26.092;2023-04-09T06:48:44;1.20;;;1.20;;
10446;SDS011;5271;44.422;26.092;2023-04-09T06:51:11;1.20;;;1.20;;
10446;SDS011;5271;44.422;26.092;2023-04-09T06:53:40;1.20;;;1.20;;
10446;SDS011;5271;44.422;26.092;2023-04-09T06:56:07;1.20;;;1.20;;
10446;SDS011;5271;44.422;26.092;2023-04-09T06:58:34;1.20;;;1.20;;
10446;SDS011;5271;44.422;26.092;2023-04-09T07:01:01;1.20;;;1.20;;
10446;SDS011;5271;44.422;26.092;2023-04-09T07:03:28;1.20;;;1.20;;
10446;SDS011;5271;44.422;26.092;2023-04-09T07:05:55;1.10;;;1.10;;
10446;SDS011;5271;44.422;26.092;2023-04-09T07:08:22;1.10;;;1.10;;
10446;SDS011;5271;44.422;26.092;2023-04-09T07:10:51;1.10;;;1.10;;
10446;SDS011;5271;44.422;26.092;2023-04-09T07:13:18;1.20;;;1.20;;
10446;SDS011;5271;44.422;26.092;2023-04-09T07:15:45;1.20;;;1.20;;
10446;SDS011;5271;44.422;26.092;2023-04-09T07:18:12;1.10;;;1.10;;
10446;SDS011;5271;44.422;26.092;2023-04-09T07:20:39;1.10;;;1.10;;
10446;SDS011;5271;44.422;26.092;2023-04-09T07:23:05;1.20;;;1.20;;
10446;SDS011;5271;44.422;26.092;2023-04-09T07:25:32;1.10;;;1.10;;
10446;SDS011;5271;44.422;26.092;2023-04-09T07:28:01;1.20;;;1.20;;
10446;SDS011;5271;44.422;26.092;2023-04-09T07:30:28;1.10;;;1.10;;
10446;SDS011;5271;44.422;26.092;2023-04-09T07:32:55;1.10;;;1.10;;
10446;SDS011;5271;44.422;26.092;2023-04-09T07:35:22;1.00;;;1.00;;
10446;SDS011;5271;44.422;26.092;2023-04-09T07:37:49;1.20;;;1.20;;
10446;SDS011;5271;44.422;26.092;2023-04-09T07:40:16;1.10;;;1.10;;
10446;SDS011;5271;44.422;26.092;2023-04-09T07:42:43;1.10;;;1.10;;
10446;SDS011;5271;44.422;26.092;2023-04-09T07:45:11;1.10;;;1.10;;
10446;SDS011;5271;44.422;26.092;2023-04-09T07:47:38;1.10;;;1.10;;
10446;SDS011;5271;44.422;26.092;2023-04-09T07:50:06;1.00;;;1.00;;
10446;SDS011;5271;44.422;26.092;2023-04-09T07:52:34;1.00;;;1.00;;
10446;SDS011;5271;44.422;26.092;2023-04-09T07:55:01;1.10;;;1.10;;
10446;SDS011;5271;44.422;26.092;2023-04-09T07:57:29;1.00;;;1.00;;
10446;SDS011;5271;44.422;26.092;2023-04-09T07:59:57;0.90;;;0.90;;
10446;SDS011;5271;44.422;26.092;2023-04-09T08:02:25;0.80;;;0.80;;
10446;SDS011;5271;44.422;26.092;2023-04-09T08:04:52;0.70;;;0.70;;
10446;SDS011;5271;44.422;26.092;2023-04-09T08:07:18;0.67;;;0.67;;
10446;SDS011;5271;44.422;26.092;2023-04-09T08:09:45;0.50;;;0.50;;
10446;SDS011;5271;44.422;26.092;2023-04-09T08:12:12;0.50;;;0.50;;
10446;SDS011;5271;44.422;26.092;2023-04-09T08:14:39;0.40;;;0.40;;
10446;SDS011;5271;44.422;26.092;2023-04-09T08:17:07;0.40;;;0.40;;
10446;SDS011;5271;44.422;26.092;2023-04-09T08:19:36;0.40;;;0.40;;
10446;SDS011;5271;44.422;26.092;2023-04-09T08:22:03;0.37;;;0.37;;
10446;SDS011;5271;44.422;26.092;2023-04-09T08:24:30;0.40;;;0.40;;
10446;SDS011;5271;44.422;26.092;2023-04-09T08:26:57;0.40;;;0.40;;
10446;SDS011;5271;44.422;26.092;2023-04-09T08:29:23;0.40;;;0.40;;
10446;SDS011;5271;44.422;26.092;2023-04-09T08:31:51;0.40;;;0.40;;
10446;SDS011;5271;44.422;26.092;2023-04-09T08:34:18;0.50;;;0.50;;
10446;SDS011;5271;44.422;26.092;2023-04-09T08:36:47;0.47;;;0.47;;
10446;SDS011;5271;44.422;26.092;2023-04-09T08:39:14;0.50;;;0.50;;
10446;SDS011;5271;44.422;26.092;2023-04-09T08:41:43;0.57;;;0.57;;
10446;SDS011;5271;44.422;26.092;2023-04-09T08:44:11;0.50;;;0.50;;
10446;SDS011;5271;44.422;26.092;2023-04-09T08:46:38;0.60;;;0.60;;
10446;SDS011;5271;44.422;26.092;2023-04-09T08:49:07;0.60;;;0.60;;
10446;SDS011;5271;44.422;26.092;2023-04-09T08:51:34;0.60;;;0.60;;
10446;SDS011;5271;44.422;26.092;2023-04-09T08:54:02;0.60;;;0.60;;
10446;SDS011;5271;44.422;26.092;2023-04-09T08:56:29;0.60;;;0.60;;
10446;SDS011;5271;44.422;26.092;2023-04-09T08:58:56;0.70;;;0.70;;
10446;SDS011;5271;44.422;26.092;2023-04-09T09:01:23;0.60;;;0.60;;
10446;SDS011;5271;44.422;26.092;2023-04-09T09:03:56;0.60;;;0.60;;
10446;SDS011;5271;44.422;26.092;2023-04-09T09:06:24;0.60;;;0.60;;
10446;SDS011;5271;44.422;26.092;2023-04-09T09:09:00;0.60;;;0.60;;
10446;SDS011;5271;44.422;26.092;2023-04-09T09:11:30;0.60;;;0.60;;
10446;SDS011;5271;44.422;26.092;2023-04-09T09:13:58;0.70;;;0.70;;
10446;SDS011;5271;44.422;26.092;2023-04-09T09:16:25;0.60;;;0.60;;
10446;SDS011;5271;44.422;26.092;2023-04-09T09:18:52;0.60;;;0.60;;
10446;SDS011;5271;44.422;26.092;2023-04-09T09:21:20;0.60;;;0.60;;
10446;SDS011;5271;44.422;26.092;2023-04-09T09:23:47;0.60;;;0.60;;
10446;SDS011;5271;44.422;26.092;2023-04-09T09:26:16;0.60;;;0.60;;
10446;SDS011;5271;44.422;26.092;2023-04-09T09:28:44;0.60;;;0.60;;
10446;SDS011;5271;44.422;26.092;2023-04-09T09:31:12;0.60;;;0.60;;
10446;SDS011;5271;44.422;26.092;2023-04-09T09:33:39;0.60;;;0.60;;
10446;SDS011;5271;44.422;26.092;2023-04-09T09:36:06;0.60;;;0.60;;
10446;SDS011;5271;44.422;26.092;2023-04-09T09:38:33;0.60;;;0.60;;
10446;SDS011;5271;44.422;26.092;2023-04-09T09:41:17;0.50;;;0.50;;
10446;SDS011;5271;44.422;26.092;2023-04-09T09:43:44;0.60;;;0.60;;
10446;SDS011;5271;44.422;26.092;2023-04-09T09:46:11;0.53;;;0.53;;
10446;SDS011;5271;44.422;26.092;2023-04-09T09:48:38;0.60;;;0.60;;
10446;SDS011;5271;44.422;26.092;2023-04-09T09:51:07;0.60;;;0.60;;
10446;SDS011;5271;44.422;26.092;2023-04-09T09:53:35;0.60;;;0.60;;
10446;SDS011;5271;44.422;26.092;2023-04-09T09:56:03;0.60;;;0.60;;
10446;SDS011;5271;44.422;26.092;2023-04-09T09:58:35;0.60;;;0.60;;
10446;SDS011;5271;44.422;26.092;2023-04-09T10:01:06;0.60;;;0.60;;
10446;SDS011;5271;44.422;26.092;2023-04-09T10:03:35;0.60;;;0.60;;
10446;SDS011;5271;44.422;26.092;2023-04-09T10:06:04;0.50;;;0.50;;
10446;SDS011;5271;44.422;26.092;2023-04-09T10:08:32;0.60;;;0.60;;
10446;SDS011;5271;44.422;26.092;2023-04-09T10:11:02;0.60;;;0.60;;
10446;SDS011;5271;44.422;26.092;2023-04-09T10:13:33;0.60;;;0.60;;
10446;SDS011;5271;44.422;26.092;2023-04-09T10:16:02;0.60;;;0.60;;
10446;SDS011;5271;44.422;26.092;2023-04-09T10:18:31;0.60;;;0.60;;
10446;SDS011;5271;44.422;26.092;2023-04-09T10:21:00;0.60;;;0.60;;
10446;SDS011;5271;44.422;26.092;2023-04-09T10:23:35;0.50;;;0.50;;
10446;SDS011;5271;44.422;26.092;2023-04-09T10:26:04;0.50;;;0.50;;
10446;SDS011;5271;44.422;26.092;2023-04-09T10:28:33;0.50;;;0.50;;
10446;SDS011;5271;44.422;26.092;2023-04-09T10:31:03;0.50;;;0.50;;
10446;SDS011;5271;44.422;26.092;2023-04-09T10:33:30;0.57;;;0.57;;
10446;SDS011;5271;44.422;26.092;2023-04-09T10:35:58;0.50;;;0.50;;
10446;SDS011;5271;44.422;26.092;2023-04-09T10:38:34;0.50;;;0.50;;
10446;SDS011;5271;44.422;26.092;2023-04-09T10:41:08;0.50;;;0.50;;
10446;SDS011;5271;44.422;26.092;2023-04-09T10:43:42;0.50;;;0.50;;
10446;SDS011;5271;44.422;26.092;2023-04-09T10:46:24;0.60;;;0.60;;
10446;SDS011;5271;44.422;26.092;2023-04-09T10:49:08;0.50;;;0.50;;
10446;SDS011;5271;44.422;26.092;2023-04-09T10:51:37;0.60;;;0.60;;
10446;SDS011;5271;44.422;26.092;2023-04-09T10:54:04;0.50;;;0.50;;
10446;SDS011;5271;44.422;26.092;2023-04-09T10:56:31;0.50;;;0.50;;
10446;SDS011;5271;44.422;26.092;2023-04-09T10:59:00;0.50;;;0.50;;
10446;SDS011;5271;44.422;26.092;2023-04-09T11:01:26;0.50;;;0.50;;
10446;SDS011;5271;44.422;26.092;2023-04-09T11:04:07;0.40;;;0.40;;
10446;SDS011;5271;44.422;26.092;2023-04-09T11:06:37;0.40;;;0.40;;
10446;SDS011;5271;44.422;26.092;2023-04-09T11:09:07;0.50;;;0.50;;
10446;SDS011;5271;44.422;26.092;2023-04-09T11:11:34;0.40;;;0.40;;
10446;SDS011;5271;44.422;26.092;2023-04-09T11:14:02;0.50;;;0.50;;
10446;SDS011;5271;44.422;26.092;2023-04-09T11:16:29;0.50;;;0.50;;
10446;SDS011;5271;44.422;26.092;2023-04-09T11:18:56;0.50;;;0.50;;
10446;SDS011;5271;44.422;26.092;2023-04-09T11:21:25;0.43;;;0.43;;
10446;SDS011;5271;44.422;26.092;2023-04-09T11:23:52;0.50;;;0.50;;
10446;SDS011;5271;44.422;26.092;2023-04-09T11:26:22;0.47;;;0.47;;
10446;SDS011;5271;44.422;26.092;2023-04-09T11:28:54;0.50;;;0.50;;
10446;SDS011;5271;44.422;26.092;2023-04-09T11:31:26;0.50;;;0.50;;
10446;SDS011;5271;44.422;26.092;2023-04-09T11:33:54;0.50;;;0.50;;
10446;SDS011;5271;44.422;26.092;2023-04-09T11:36:20;0.40;;;0.40;;
10446;SDS011;5271;44.422;26.092;2023-04-09T11:38:47;0.40;;;0.40;;
10446;SDS011;5271;44.422;26.092;2023-04-09T11:41:15;0.40;;;0.40;;
10446;SDS011;5271;44.422;26.092;2023-04-09T11:43:42;0.40;;;0.40;;
10446;SDS011;5271;44.422;26.092;2023-04-09T11:46:09;0.40;;;0.40;;
10446;SDS011;5271;44.422;26.092;2023-04-09T11:48:38;0.40;;;0.40;;
10446;SDS011;5271;44.422;26.092;2023-04-09T11:51:05;0.47;;;0.47;;
10446;SDS011;5271;44.422;26.092;2023-04-09T11:53:32;0.50;;;0.50;;
10446;SDS011;5271;44.422;26.092;2023-04-09T11:56:02;0.40;;;0.40;;
10446;SDS011;5271;44.422;26.092;2023-04-09T11:58:29;0.50;;;0.50;;
10446;SDS011;5271;44.422;26.092;2023-04-09T12:00:57;0.50;;;0.50;;
10446;SDS011;5271;44.422;26.092;2023-04-09T12:03:27;0.50;;;0.50;;
10446;SDS011;5271;44.422;26.092;2023-04-09T12:05:57;0.40;;;0.40;;
10446;SDS011;5271;44.422;26.092;2023-04-09T12:08:26;0.50;;;0.50;;
10446;SDS011;5271;44.422;26.092;2023-04-09T12:10:53;0.50;;;0.50;;
10446;SDS011;5271;44.422;26.092;2023-04-09T12:13:20;0.50;;;0.50;;
10446;SDS011;5271;44.422;26.092;2023-04-09T12:15:47;0.50;;;0.50;;
10446;SDS011;5271;44.422;26.092;2023-04-09T12:18:15;0.40;;;0.40;;
10446;SDS011;5271;44.422;26.092;2023-04-09T12:20:42;0.50;;;0.50;;
10446;SDS011;5271;44.422;26.092;2023-04-09T12:23:15;0.50;;;0.50;;
10446;SDS011;5271;44.422;26.092;2023-04-09T12:25:42;0.40;;;0.40;;
10446;SDS011;5271;44.422;26.092;2023-04-09T12:28:12;0.50;;;0.50;;
10446;SDS011;5271;44.422;26.092;2023-04-09T12:30:42;0.50;;;0.50;;
10446;SDS011;5271;44.422;26.092;2023-04-09T12:33:09;0.50;;;0.50;;
10446;SDS011;5271;44.422;26.092;2023-04-09T12:35:36;0.50;;;0.50;;
10446;SDS011;5271;44.422;26.092;2023-04-09T12:38:03;0.40;;;0.40;;
10446;SDS011;5271;44.422;26.092;2023-04-09T12:40:31;0.50;;;0.50;;
10446;SDS011;5271;44.422;26.092;2023-04-09T12:42:58;0.50;;;0.50;;
10446;SDS011;5271;44.422;26.092;2023-04-09T12:45:25;0.50;;;0.50;;
10446;SDS011;5271;44.422;26.092;2023-04-09T12:47:52;0.53;;;0.53;;
10446;SDS011;5271;44.422;26.092;2023-04-09T12:50:19;0.50;;;0.50;;
10446;SDS011;5271;44.422;26.092;2023-04-09T12:52:46;0.50;;;0.50;;
10446;SDS011;5271;44.422;26.092;2023-04-09T12:55:13;0.50;;;0.50;;
10446;SDS011;5271;44.422;26.092;2023-04-09T12:57:43;0.50;;;0.50;;
10446;SDS011;5271;44.422;26.092;2023-04-09T13:00:11;0.50;;;0.50;;
10446;SDS011;5271;44.422;26.092;2023-04-09T13:02:39;0.50;;;0.50;;
10446;SDS011;5271;44.422;26.092;2023-04-09T13:05:06;0.50;;;0.50;;
10446;SDS011;5271;44.422;26.092;2023-04-09T13:07:33;0.50;;;0.50;;
10446;SDS011;5271;44.422;26.092;2023-04-09T13:10:00;0.50;;;0.50;;
10446;SDS011;5271;44.422;26.092;2023-04-09T13:12:27;0.50;;;0.50;;
10446;SDS011;5271;44.422;26.092;2023-04-09T13:14:55;0.50;;;0.50;;
10446;SDS011;5271;44.422;26.092;2023-04-09T13:17:23;0.50;;;0.50;;
10446;SDS011;5271;44.422;26.092;2023-04-09T13:19:50;0.50;;;0.50;;
10446;SDS011;5271;44.422;26.092;2023-04-09T13:22:17;0.50;;;0.50;;
10446;SDS011;5271;44.422;26.092;2023-04-09T13:24:44;0.50;;;0.50;;
10446;SDS011;5271;44.422;26.092;2023-04-09T13:27:11;0.50;;;0.50;;
10446;SDS011;5271;44.422;26.092;2023-04-09T13:29:38;0.50;;;0.50;;
10446;SDS011;5271;44.422;26.092;2023-04-09T13:32:06;0.40;;;0.40;;
10446;SDS011;5271;44.422;26.092;2023-04-09T13:34:34;0.40;;;0.40;;
10446;SDS011;5271;44.422;26.092;2023-04-09T13:37:02;0.40;;;0.40;;
10446;SDS011;5271;44.422;26.092;2023-04-09T13:39:29;0.40;;;0.40;;
10446;SDS011;5271;44.422;26.092;2023-04-09T13:41:55;0.40;;;0.40;;
10446;SDS011;5271;44.422;26.092;2023-04-09T13:44:23;0.50;;;0.50;;
10446;SDS011;5271;44.422;26.092;2023-04-09T13:46:50;0.50;;;0.50;;
10446;SDS011;5271;44.422;26.092;2023-04-09T13:49:19;0.50;;;0.50;;
10446;SDS011;5271;44.422;26.092;2023-04-09T13:51:46;0.50;;;0.50;;
10446;SDS011;5271;44.422;26.092;2023-04-09T13:54:13;0.40;;;0.40;;
10446;SDS011;5271;44.422;26.092;2023-04-09T13:56:40;0.40;;;0.40;;
10446;SDS011;5271;44.422;26.092;2023-04-09T13:59:07;0.50;;;0.50;;
10446;SDS011;5271;44.422;26.092;2023-04-09T14:01:34;0.40;;;0.40;;
10446;SDS011;5271;44.422;26.092;2023-04-09T14:04:01;0.50;;;0.50;;
10446;SDS011;5271;44.422;26.092;2023-04-09T14:06:29;0.50;;;0.50;;
10446;SDS011;5271;44.422;26.092;2023-04-09T14:08:56;0.40;;;0.40;;
10446;SDS011;5271;44.422;26.092;2023-04-09T14:11:23;0.40;;;0.40;;
10446;SDS011;5271;44.422;26.092;2023-04-09T14:13:50;0.40;;;0.40;;
10446;SDS011;5271;44.422;26.092;2023-04-09T14:16:16;0.50;;;0.50;;
10446;SDS011;5271;44.422;26.092;2023-04-09T14:18:44;0.40;;;0.40;;
10446;SDS011;5271;44.422;26.092;2023-04-09T14:21:11;0.40;;;0.40;;
10446;SDS011;5271;44.422;26.092;2023-04-09T14:23:39;0.40;;;0.40;;
10446;SDS011;5271;44.422;26.092;2023-04-09T14:26:06;0.40;;;0.40;;
10446;SDS011;5271;44.422;26.092;2023-04-09T14:28:33;0.40;;;0.40;;
10446;SDS011;5271;44.422;26.092;2023-04-09T14:31:00;0.40;;;0.40;;
10446;SDS011;5271;44.422;26.092;2023-04-09T14:33:27;0.40;;;0.40;;
10446;SDS011;5271;44.422;26.092;2023-04-09T14:35:54;0.40;;;0.40;;
10446;SDS011;5271;44.422;26.092;2023-04-09T14:38:21;0.40;;;0.40;;
10446;SDS011;5271;44.422;26.092;2023-04-09T14:40:50;0.40;;;0.40;;
10446;SDS011;5271;44.422;26.092;2023-04-09T14:43:17;0.40;;;0.40;;
10446;SDS011;5271;44.422;26.092;2023-04-09T14:45:44;0.40;;;0.40;;
10446;SDS011;5271;44.422;26.092;2023-04-09T14:48:11;0.40;;;0.40;;
10446;SDS011;5271;44.422;26.092;2023-04-09T14:50:37;0.40;;;0.40;;
10446;SDS011;5271;44.422;26.092;2023-04-09T14:53:05;0.40;;;0.40;;